Taylors Island, Maryland
Current Conditions -  °F | °C
As of 2:52 AM on Thursday 27 Nov 2014 (Local Time) from KNHK Reporting Station
Few Clouds Few Clouds  
Wind Chill:   Ceiling: Unl
Heat Index:   Visibility: 10mi
Dew Point:   Wind: 7mph
Humidity: 86%   Direction: 260°W
Pressure: 30.02"   Gusts: NA
Location:  38.47°N, 76.3°W
Report Text: KNHK 270752Z AUTO 26006KT 10SM FEW095 03/01 A3002 RMK AO2 SLP167 T00280006
Loading
Personal Weather Stations






























Interactive Weather Map New forecast layout! Learn more

10-Day Weather Forecast

Advertisements
Track Severe Weather on mobile